createdAt,value
2017-12-15T00:00:27.117Z,75.99
2017-12-15T00:01:32.828Z,75.94
2017-12-15T00:02:38.565Z,75.93
2017-12-15T00:03:44.285Z,75.94
2017-12-15T00:04:50.340Z,75.93
2017-12-15T00:05:56.064Z,75.92
2017-12-15T00:07:01.866Z,75.90
2017-12-15T00:08:07.783Z,75.87
2017-12-15T00:09:13.519Z,75.87
2017-12-15T00:10:18.355Z,75.87
2017-12-15T00:11:24.114Z,75.92
2017-12-15T00:12:29.831Z,76.30
2017-12-15T00:13:35.585Z,76.70
2017-12-15T00:14:41.320Z,76.83
2017-12-15T00:15:47.060Z,76.95
2017-12-15T00:16:52.796Z,77.27
2017-12-15T00:17:58.515Z,77.42
2017-12-15T00:19:04.247Z,77.61
2017-12-15T00:20:09.991Z,77.72
2017-12-15T00:21:15.704Z,77.92
2017-12-15T00:22:22.182Z,78.01
2017-12-15T00:23:27.898Z,78.11
2017-12-15T00:24:34.423Z,78.15
2017-12-15T00:25:40.137Z,78.26
2017-12-15T00:26:45.874Z,78.24
2017-12-15T00:27:51.925Z,78.29
2017-12-15T00:28:57.648Z,78.35
2017-12-15T00:30:03.514Z,78.36
2017-12-15T00:31:09.249Z,78.49
2017-12-15T00:32:15.009Z,78.57
2017-12-15T00:33:20.735Z,78.61
2017-12-15T00:34:26.479Z,78.74
2017-12-15T00:35:32.240Z,78.85
2017-12-15T00:36:37.988Z,78.84
2017-12-15T00:37:43.393Z,78.85
2017-12-15T00:38:49.161Z,79.05
2017-12-15T00:39:56.409Z,79.08
2017-12-15T00:41:02.231Z,79.20
2017-12-15T00:42:08.052Z,79.17
2017-12-15T00:43:14.308Z,79.24
2017-12-15T00:44:20.801Z,79.29
2017-12-15T00:45:26.520Z,79.34
2017-12-15T00:46:33.055Z,79.36
2017-12-15T00:47:38.831Z,79.31
2017-12-15T00:48:44.567Z,79.30
2017-12-15T00:49:49.963Z,79.06
2017-12-15T00:50:55.968Z,79.04
2017-12-15T00:52:01.712Z,79.06
2017-12-15T00:53:07.433Z,79.06
2017-12-15T00:54:13.144Z,78.90
2017-12-15T00:55:18.865Z,78.89
2017-12-15T00:56:24.600Z,78.94
2017-12-15T00:57:30.358Z,78.94
2017-12-15T00:58:36.856Z,79.02
2017-12-15T00:59:42.598Z,79.02
2017-12-15T01:00:48.317Z,79.00
2017-12-15T01:01:54.796Z,78.97
2017-12-15T01:03:00.532Z,78.87
2017-12-15T01:04:05.928Z,78.84
2017-12-15T01:05:13.171Z,78.81
2017-12-15T01:06:18.916Z,78.72
2017-12-15T01:07:24.663Z,78.80
2017-12-15T01:08:30.423Z,78.93
2017-12-15T01:09:36.136Z,79.01
2017-12-15T01:10:41.867Z,79.07
2017-12-15T01:11:47.589Z,79.07
2017-12-15T01:12:53.328Z,79.20
2017-12-15T01:13:58.756Z,79.33
2017-12-15T01:15:05.246Z,79.33
2017-12-15T01:16:10.986Z,79.37
2017-12-15T01:17:16.718Z,79.36
2017-12-15T01:18:22.434Z,79.35
2017-12-15T01:19:28.951Z,79.40
2017-12-15T01:20:34.734Z,79.38
2017-12-15T01:21:41.221Z,79.43
2017-12-15T01:22:46.967Z,79.46
2017-12-15T01:23:52.699Z,79.47
2017-12-15T01:24:58.858Z,79.49
2017-12-15T01:26:04.596Z,79.50
2017-12-15T01:27:10.302Z,79.45
2017-12-15T01:28:16.808Z,79.41
2017-12-15T01:29:22.546Z,79.42
2017-12-15T01:30:28.298Z,79.38
2017-12-15T01:31:34.024Z,79.40
2017-12-15T01:32:39.758Z,79.53
2017-12-15T01:33:45.483Z,79.56
2017-12-15T01:34:51.215Z,79.52
2017-12-15T01:35:57.724Z,79.56
2017-12-15T01:37:03.521Z,79.54
2017-12-15T01:38:09.413Z,79.55
2017-12-15T01:39:15.131Z,79.58
2017-12-15T01:40:21.256Z,79.69
2017-12-15T01:41:27.432Z,79.72
2017-12-15T01:42:33.161Z,79.82
2017-12-15T01:43:38.888Z,79.83
2017-12-15T01:44:44.773Z,79.82
2017-12-15T01:45:50.511Z,79.85
2017-12-15T01:46:56.247Z,79.91
2017-12-15T01:48:02.299Z,79.92
2017-12-15T01:49:08.033Z,79.86
2017-12-15T01:50:13.826Z,79.82
2017-12-15T01:51:20.136Z,79.82
2017-12-15T01:52:25.545Z,79.84
2017-12-15T01:53:31.276Z,79.82
2017-12-15T01:54:37.804Z,79.79
2017-12-15T01:55:43.724Z,79.88
2017-12-15T01:56:50.551Z,79.94
2017-12-15T01:57:56.335Z,80.08
2017-12-15T01:59:02.063Z,80.19
2017-12-15T02:00:07.802Z,80.25
2017-12-15T02:01:13.534Z,80.14
2017-12-15T02:02:19.664Z,80.14
2017-12-15T02:03:26.173Z,80.18
2017-12-15T02:04:31.912Z,80.18
2017-12-15T02:05:37.646Z,80.21
2017-12-15T02:06:43.370Z,80.17
2017-12-15T02:07:49.102Z,80.18
2017-12-15T02:08:54.863Z,80.09
2017-12-15T02:10:00.603Z,80.03
2017-12-15T02:11:06.744Z,80.04
2017-12-15T02:12:12.459Z,79.94
2017-12-15T02:13:18.200Z,79.92
2017-12-15T02:14:24.010Z,79.85
2017-12-15T02:15:29.746Z,79.82
2017-12-15T02:16:35.460Z,79.82
2017-12-15T02:17:41.171Z,79.70
2017-12-15T02:18:46.946Z,79.67
2017-12-15T02:19:52.689Z,79.64
2017-12-15T02:20:58.419Z,79.59
2017-12-15T02:22:04.159Z,79.55
2017-12-15T02:23:09.974Z,79.58
2017-12-15T02:24:15.712Z,79.64
2017-12-15T02:25:22.213Z,79.75
2017-12-15T02:26:27.944Z,79.81
2017-12-15T02:27:33.682Z,79.89
2017-12-15T02:28:39.601Z,80.05
2017-12-15T02:29:45.318Z,80.10
2017-12-15T02:30:51.059Z,80.13
2017-12-15T02:31:57.173Z,80.13
2017-12-15T02:33:03.678Z,80.11
2017-12-15T02:34:09.418Z,80.14
2017-12-15T02:35:15.210Z,80.09
2017-12-15T02:36:21.137Z,80.13
2017-12-15T02:37:26.517Z,80.15
2017-12-15T02:38:32.236Z,80.06
2017-12-15T02:39:38.731Z,80.05
2017-12-15T02:40:44.476Z,80.09
2017-12-15T02:41:50.233Z,80.14
2017-12-15T02:42:55.959Z,80.18
2017-12-15T02:44:01.695Z,80.19
2017-12-15T02:45:07.476Z,80.18
2017-12-15T02:46:13.204Z,80.16
2017-12-15T02:47:19.038Z,80.09
2017-12-15T02:48:24.568Z,80.06
2017-12-15T02:49:32.317Z,79.94
2017-12-15T02:50:38.083Z,79.83
2017-12-15T02:51:43.812Z,79.78
2017-12-15T02:52:49.552Z,79.72
2017-12-15T02:53:55.284Z,79.73
2017-12-15T02:55:00.994Z,79.73
2017-12-15T02:56:06.729Z,79.75
2017-12-15T02:57:12.462Z,79.81
2017-12-15T02:58:18.217Z,79.70
2017-12-15T02:59:23.928Z,79.69
2017-12-15T03:00:29.693Z,79.68
2017-12-15T03:01:35.429Z,79.64
2017-12-15T03:02:41.167Z,79.61
2017-12-15T03:03:46.919Z,79.50
2017-12-15T03:04:52.653Z,79.41
2017-12-15T03:05:59.156Z,79.35
2017-12-15T03:07:04.911Z,79.36
2017-12-15T03:08:10.628Z,79.36
2017-12-15T03:09:17.155Z,79.37
2017-12-15T03:10:21.961Z,79.23
2017-12-15T03:11:27.690Z,79.18
2017-12-15T03:12:33.404Z,79.15
2017-12-15T03:13:39.126Z,79.19
2017-12-15T03:14:45.629Z,79.08
2017-12-15T03:15:51.341Z,79.00
2017-12-15T03:16:57.067Z,78.98
2017-12-15T03:18:03.570Z,78.87
2017-12-15T03:19:09.289Z,78.88
2017-12-15T03:20:15.063Z,78.87
2017-12-15T03:21:20.776Z,78.86
2017-12-15T03:22:26.490Z,78.87
2017-12-15T03:23:32.970Z,78.94
2017-12-15T03:24:38.703Z,78.80
2017-12-15T03:25:44.460Z,78.76
2017-12-15T03:26:50.197Z,78.71
2017-12-15T03:27:55.580Z,78.67
2017-12-15T03:29:01.298Z,78.60
2017-12-15T03:30:07.017Z,78.51
2017-12-15T03:31:12.753Z,78.44
2017-12-15T03:32:18.467Z,78.36
2017-12-15T03:33:24.952Z,78.34
2017-12-15T03:34:30.682Z,78.22
2017-12-15T03:35:36.408Z,78.13
2017-12-15T03:36:42.921Z,78.15
2017-12-15T03:37:48.715Z,78.09
2017-12-15T03:38:54.442Z,78.03
2017-12-15T03:40:00.948Z,78.07
2017-12-15T03:41:06.754Z,78.00
2017-12-15T03:42:13.292Z,77.90
2017-12-15T03:43:19.028Z,77.80
2017-12-15T03:44:24.807Z,77.75
2017-12-15T03:45:30.747Z,77.65
2017-12-15T03:46:36.491Z,77.58
2017-12-15T03:47:42.556Z,77.55
2017-12-15T03:48:48.285Z,77.48
2017-12-15T03:49:54.001Z,77.37
2017-12-15T03:51:00.477Z,77.34
2017-12-15T03:52:06.193Z,77.26
2017-12-15T03:53:12.708Z,77.15
2017-12-15T03:54:18.420Z,77.06
2017-12-15T03:55:24.136Z,76.97
2017-12-15T03:56:30.635Z,76.88
2017-12-15T03:57:36.386Z,76.75
2017-12-15T03:58:42.409Z,76.63
2017-12-15T03:59:48.146Z,76.54
2017-12-15T04:00:54.300Z,76.48
2017-12-15T04:02:00.028Z,76.40
2017-12-15T04:03:06.183Z,76.29
2017-12-15T04:04:11.982Z,76.17
2017-12-15T04:05:17.711Z,76.07
2017-12-15T04:06:23.471Z,75.99
2017-12-15T04:07:29.376Z,75.97
2017-12-15T04:08:35.115Z,75.91
2017-12-15T04:09:40.876Z,75.83
2017-12-15T04:10:46.606Z,75.77
2017-12-15T04:11:52.324Z,75.67
2017-12-15T04:12:58.062Z,75.62
2017-12-15T04:14:03.459Z,75.58
2017-12-15T04:15:09.215Z,75.50
2017-12-15T04:16:14.592Z,75.43
2017-12-15T04:17:20.307Z,75.38
2017-12-15T04:18:26.982Z,75.40
2017-12-15T04:19:32.730Z,75.36
2017-12-15T04:20:38.472Z,75.31
2017-12-15T04:21:44.231Z,75.25
2017-12-15T04:22:49.961Z,75.19
2017-12-15T04:23:55.694Z,75.16
2017-12-15T04:25:01.437Z,75.13
2017-12-15T04:26:07.176Z,75.07
2017-12-15T04:27:12.884Z,75.01
2017-12-15T04:28:19.369Z,75.00
2017-12-15T04:29:25.100Z,74.94
2017-12-15T04:30:30.821Z,74.86
2017-12-15T04:31:37.347Z,74.79
2017-12-15T04:32:43.088Z,74.85
2017-12-15T04:33:48.799Z,74.84
2017-12-15T04:34:54.537Z,74.80
2017-12-15T04:36:00.271Z,74.80
2017-12-15T04:37:06.012Z,74.78
2017-12-15T04:38:11.744Z,74.77
2017-12-15T04:39:17.596Z,74.75
2017-12-15T04:40:23.311Z,74.86
2017-12-15T04:41:29.807Z,74.86
2017-12-15T04:42:35.549Z,74.92
2017-12-15T04:43:41.257Z,74.97
2017-12-15T04:44:47.756Z,74.96
2017-12-15T04:45:53.494Z,75.03
2017-12-15T04:46:59.202Z,75.07
2017-12-15T04:48:05.718Z,75.05
2017-12-15T04:49:11.436Z,75.08
2017-12-15T04:50:17.171Z,75.19
2017-12-15T04:51:22.892Z,75.26
2017-12-15T04:52:29.408Z,75.32
2017-12-15T04:53:35.165Z,75.38
2017-12-15T04:54:41.645Z,75.48
2017-12-15T04:55:48.127Z,75.57
2017-12-15T04:56:53.840Z,75.60
2017-12-15T04:58:00.325Z,75.62
2017-12-15T04:59:06.069Z,75.74
2017-12-15T05:00:11.142Z,75.71
2017-12-15T05:01:16.881Z,75.74
2017-12-15T05:02:24.106Z,75.90
2017-12-15T05:03:29.830Z,75.88
2017-12-15T05:04:35.367Z,75.87
2017-12-15T05:05:40.793Z,75.97
2017-12-15T05:06:47.283Z,76.08
2017-12-15T05:07:53.010Z,76.16
2017-12-15T05:08:58.737Z,76.35
2017-12-15T05:10:05.302Z,76.57
2017-12-15T05:11:11.456Z,76.62
2017-12-15T05:12:17.194Z,76.68
2017-12-15T05:13:22.925Z,76.39
2017-12-15T05:14:29.492Z,76.65
2017-12-15T05:15:34.585Z,76.72
2017-12-15T05:16:40.752Z,76.77
2017-12-15T05:17:46.931Z,76.67
2017-12-15T05:18:52.049Z,76.43
2017-12-15T05:19:57.482Z,76.34
2017-12-15T05:21:04.032Z,76.21
2017-12-15T05:22:10.528Z,76.47
2017-12-15T05:23:16.501Z,76.50
2017-12-15T05:24:22.209Z,76.57
2017-12-15T05:25:27.930Z,76.64
2017-12-15T05:26:34.455Z,76.86
2017-12-15T05:27:40.187Z,77.03
2017-12-15T05:28:45.912Z,77.02
2017-12-15T05:29:51.629Z,77.02
2017-12-15T05:30:57.352Z,77.15
2017-12-15T05:32:03.133Z,77.23
2017-12-15T05:33:08.845Z,77.25
2017-12-15T05:34:14.982Z,77.25
2017-12-15T05:35:21.483Z,77.25
2017-12-15T05:36:27.285Z,77.15
2017-12-15T05:37:33.784Z,77.18
2017-12-15T05:38:39.511Z,77.15
2017-12-15T05:39:45.245Z,77.28
2017-12-15T05:40:50.972Z,77.43
2017-12-15T05:41:56.698Z,77.46
2017-12-15T05:43:02.885Z,77.55
2017-12-15T05:44:08.648Z,77.53
2017-12-15T05:45:14.440Z,77.37
2017-12-15T05:46:20.935Z,77.36
2017-12-15T05:47:26.327Z,77.38
2017-12-15T05:48:32.848Z,77.42
2017-12-15T05:49:38.557Z,77.36
2017-12-15T05:50:44.282Z,77.32
2017-12-15T05:51:50.034Z,77.23
2017-12-15T05:52:55.826Z,77.25
2017-12-15T05:54:01.728Z,77.30
2017-12-15T05:55:07.454Z,77.40
2017-12-15T05:56:13.170Z,77.61
2017-12-15T05:57:19.700Z,77.51
2017-12-15T05:58:25.115Z,77.47
2017-12-15T05:59:30.871Z,77.32
2017-12-15T06:00:36.592Z,77.08
2017-12-15T06:01:42.323Z,77.08
2017-12-15T06:02:48.244Z,77.02
2017-12-15T06:03:53.991Z,76.94
2017-12-15T06:04:59.749Z,77.01
2017-12-15T06:06:05.648Z,76.89
2017-12-15T06:07:12.999Z,76.88
2017-12-15T06:08:18.736Z,76.83
2017-12-15T06:09:24.488Z,76.81
2017-12-15T06:10:30.229Z,76.82
2017-12-15T06:11:36.000Z,76.94
2017-12-15T06:12:42.498Z,77.07
2017-12-15T06:13:48.221Z,77.02
2017-12-15T06:14:53.939Z,77.03
2017-12-15T06:16:00.476Z,76.96
2017-12-15T06:17:06.185Z,76.97
2017-12-15T06:18:12.004Z,77.04
2017-12-15T06:19:17.734Z,76.99
2017-12-15T06:20:24.270Z,77.11
2017-12-15T06:21:29.999Z,77.09
2017-12-15T06:22:35.731Z,77.15
2017-12-15T06:23:41.472Z,77.07
2017-12-15T06:24:47.207Z,77.13
2017-12-15T06:25:52.962Z,77.32
2017-12-15T06:26:58.724Z,77.48
2017-12-15T06:28:04.455Z,77.53
2017-12-15T06:29:10.174Z,77.48
2017-12-15T06:30:15.288Z,77.54
2017-12-15T06:31:20.358Z,77.56
2017-12-15T06:32:25.788Z,77.71
2017-12-15T06:33:30.845Z,77.67
2017-12-15T06:34:36.898Z,77.73
2017-12-15T06:35:41.972Z,77.87
2017-12-15T06:36:47.385Z,78.08
2017-12-15T06:37:54.312Z,78.20
2017-12-15T06:39:01.078Z,78.31
2017-12-15T06:40:08.052Z,78.36
2017-12-15T06:41:13.862Z,78.16
2017-12-15T06:42:19.662Z,78.15
2017-12-15T06:43:25.398Z,78.00
2017-12-15T06:44:31.527Z,78.13
2017-12-15T06:45:37.236Z,78.17
2017-12-15T06:46:43.008Z,78.14
2017-12-15T06:47:48.748Z,78.16
2017-12-15T06:48:55.276Z,78.05
2017-12-15T06:50:01.027Z,78.03
2017-12-15T06:51:07.516Z,77.77
2017-12-15T06:52:13.256Z,77.84
2017-12-15T06:53:18.990Z,77.93
2017-12-15T06:54:24.322Z,78.00
2017-12-15T06:55:30.127Z,78.00
2017-12-15T06:56:36.025Z,78.01
2017-12-15T06:57:41.742Z,78.06
2017-12-15T06:58:48.322Z,78.16
2017-12-15T06:59:54.066Z,78.12
2017-12-15T07:01:00.120Z,78.20
2017-12-15T07:02:05.841Z,78.28
2017-12-15T07:03:11.580Z,78.22
2017-12-15T07:04:18.101Z,78.33
2017-12-15T07:05:23.868Z,78.52
2017-12-15T07:06:29.605Z,78.65
2017-12-15T07:07:35.334Z,78.75
2017-12-15T07:08:41.822Z,78.67
2017-12-15T07:09:48.312Z,78.76
2017-12-15T07:10:54.129Z,78.70
2017-12-15T07:11:59.865Z,78.66
2017-12-15T07:13:05.577Z,78.69
2017-12-15T07:14:11.327Z,78.62
2017-12-15T07:15:17.838Z,78.74
2017-12-15T07:16:23.589Z,78.71
2017-12-15T07:17:29.332Z,78.62
2017-12-15T07:18:35.070Z,78.60
2017-12-15T07:19:40.783Z,78.60
2017-12-15T07:20:46.520Z,78.65
2017-12-15T07:21:52.300Z,78.78
2017-12-15T07:22:58.090Z,78.79
2017-12-15T07:24:03.839Z,78.83
2017-12-15T07:25:09.552Z,78.82
2017-12-15T07:26:15.286Z,78.93
2017-12-15T07:27:21.043Z,78.85
2017-12-15T07:28:27.030Z,78.82
2017-12-15T07:29:33.530Z,78.87
2017-12-15T07:30:39.331Z,78.80
2017-12-15T07:31:45.864Z,78.95
2017-12-15T07:32:51.618Z,79.07
2017-12-15T07:33:58.161Z,79.12
2017-12-15T07:35:03.881Z,79.17
2017-12-15T07:36:09.422Z,79.14
2017-12-15T07:37:15.129Z,79.20
2017-12-15T07:38:20.872Z,79.15
2017-12-15T07:39:26.608Z,79.05
2017-12-15T07:40:32.000Z,79.06
2017-12-15T07:41:37.731Z,79.03
2017-12-15T07:42:43.457Z,79.07
2017-12-15T07:43:49.208Z,79.21
2017-12-15T07:44:56.452Z,79.31
2017-12-15T07:46:02.164Z,79.33
2017-12-15T07:47:07.553Z,79.37
2017-12-15T07:48:13.274Z,79.27
2017-12-15T07:49:19.056Z,79.24
2017-12-15T07:50:24.821Z,79.28
2017-12-15T07:51:30.555Z,79.25
2017-12-15T07:52:36.843Z,79.39
2017-12-15T07:53:42.587Z,79.49
2017-12-15T07:54:48.354Z,79.53
2017-12-15T07:55:54.074Z,79.48
2017-12-15T07:56:59.793Z,79.48
2017-12-15T07:58:05.522Z,79.31
2017-12-15T07:59:11.482Z,79.23
2017-12-15T08:00:16.740Z,79.18
2017-12-15T08:01:22.472Z,79.15
2017-12-15T08:02:28.252Z,79.01
2017-12-15T08:03:33.974Z,79.01
2017-12-15T08:04:39.692Z,78.99
2017-12-15T08:05:45.463Z,79.00
2017-12-15T08:06:51.230Z,78.89
2017-12-15T08:07:57.736Z,78.92
2017-12-15T08:09:03.022Z,78.89
2017-12-15T08:10:09.324Z,78.90
2017-12-15T08:11:15.112Z,78.86
2017-12-15T08:12:21.623Z,78.77
2017-12-15T08:13:27.361Z,78.84
2017-12-15T08:14:33.173Z,78.88
2017-12-15T08:15:39.674Z,78.84
2017-12-15T08:16:45.470Z,78.68
2017-12-15T08:17:51.644Z,78.61
2017-12-15T08:18:57.402Z,78.55
2017-12-15T08:20:03.124Z,78.59
2017-12-15T08:21:08.844Z,78.61
2017-12-15T08:22:14.620Z,78.64
2017-12-15T08:23:20.121Z,78.54
2017-12-15T08:24:26.666Z,78.57
2017-12-15T08:25:32.088Z,78.43
2017-12-15T08:26:37.834Z,78.35
2017-12-15T08:27:43.701Z,78.30
2017-12-15T08:28:50.060Z,78.27
2017-12-15T08:29:56.545Z,78.17
2017-12-15T08:31:02.281Z,78.17
2017-12-15T08:32:08.025Z,78.21
2017-12-15T08:33:13.989Z,78.14
2017-12-15T08:34:19.707Z,78.11
2017-12-15T08:35:25.443Z,78.02
2017-12-15T08:36:31.172Z,78.01
2017-12-15T08:37:36.900Z,78.01
2017-12-15T08:38:43.089Z,77.95
2017-12-15T08:39:48.813Z,77.82
2017-12-15T08:40:54.192Z,77.82
2017-12-15T08:41:59.929Z,77.67
2017-12-15T08:43:05.642Z,77.59
2017-12-15T08:44:11.407Z,77.70
2017-12-15T08:45:17.253Z,77.63
2017-12-15T08:46:22.987Z,77.47
2017-12-15T08:47:28.700Z,77.48
2017-12-15T08:48:34.409Z,77.48
2017-12-15T08:49:40.931Z,77.35
2017-12-15T08:50:46.674Z,77.31
2017-12-15T08:51:52.470Z,77.18
2017-12-15T08:52:58.971Z,77.23
2017-12-15T08:54:04.679Z,77.33
2017-12-15T08:55:10.459Z,77.38
2017-12-15T08:56:16.195Z,77.25
2017-12-15T08:57:21.927Z,77.28
2017-12-15T08:58:27.659Z,77.17
2017-12-15T08:59:33.387Z,77.17
2017-12-15T09:00:39.133Z,76.98
2017-12-15T09:01:45.087Z,76.86
2017-12-15T09:02:50.827Z,76.69
2017-12-15T09:04:02.052Z,76.39
2017-12-15T09:05:07.780Z,76.09
2017-12-15T09:06:13.524Z,75.80
2017-12-15T09:07:19.236Z,75.54
2017-12-15T09:08:24.963Z,75.24
2017-12-15T09:09:30.691Z,75.15
2017-12-15T09:10:36.418Z,75.07
2017-12-15T09:11:41.840Z,74.98
2017-12-15T09:12:48.332Z,74.91
2017-12-15T09:13:54.097Z,74.75
2017-12-15T09:14:59.827Z,74.69
2017-12-15T09:16:05.589Z,74.71
2017-12-15T09:17:11.372Z,74.67
2017-12-15T09:18:16.499Z,74.38
2017-12-15T09:19:22.229Z,74.18
2017-12-15T09:20:28.719Z,74.02
2017-12-15T09:21:34.430Z,73.87
2017-12-15T09:22:40.925Z,73.67
2017-12-15T09:23:46.654Z,73.60
2017-12-15T09:24:53.547Z,73.60
2017-12-15T09:25:58.366Z,73.53
2017-12-15T09:27:04.092Z,73.36
2017-12-15T09:28:08.954Z,73.34
2017-12-15T09:29:14.700Z,73.24
2017-12-15T09:30:20.475Z,73.09
2017-12-15T09:31:26.213Z,72.96
2017-12-15T09:32:31.984Z,73.01
2017-12-15T09:33:37.747Z,73.10
2017-12-15T09:34:43.585Z,73.03
2017-12-15T09:35:49.298Z,72.88
2017-12-15T09:36:55.025Z,72.75
2017-12-15T09:38:00.866Z,72.68
2017-12-15T09:39:06.863Z,72.68
2017-12-15T09:40:12.600Z,72.62
2017-12-15T09:41:18.010Z,72.64
2017-12-15T09:42:23.740Z,72.53
2017-12-15T09:43:29.457Z,72.41
2017-12-15T09:44:35.957Z,72.15
2017-12-15T09:45:41.790Z,72.08
2017-12-15T09:46:47.519Z,72.00
2017-12-15T09:47:53.261Z,71.82
2017-12-15T09:48:59.012Z,71.61
2017-12-15T09:50:04.771Z,71.37
2017-12-15T09:51:10.481Z,71.14
2017-12-15T09:52:16.212Z,70.59
2017-12-15T09:53:21.924Z,70.12
2017-12-15T09:54:27.681Z,69.49
2017-12-15T09:55:34.234Z,68.90
2017-12-15T09:56:39.980Z,68.39
2017-12-15T09:57:46.465Z,67.85
2017-12-15T09:58:52.215Z,67.38
2017-12-15T09:59:57.944Z,67.06
2017-12-15T10:01:03.765Z,66.38
2017-12-15T10:02:10.253Z,66.19
2017-12-15T10:03:15.997Z,65.61
2017-12-15T10:04:21.730Z,65.38
2017-12-15T10:05:27.456Z,65.19
2017-12-15T10:06:33.983Z,65.00
2017-12-15T10:07:39.759Z,64.86
2017-12-15T10:08:46.264Z,64.98
2017-12-15T10:09:51.987Z,65.32
2017-12-15T10:10:57.727Z,65.37
2017-12-15T10:12:03.490Z,65.64
2017-12-15T10:13:09.239Z,65.40
2017-12-15T10:14:14.964Z,65.87
2017-12-15T10:15:20.681Z,66.15
2017-12-15T10:16:26.393Z,65.92
2017-12-15T10:17:32.936Z,66.15
2017-12-15T10:18:39.450Z,66.20
2017-12-15T10:19:45.168Z,66.21
2017-12-15T10:20:50.890Z,65.99
2017-12-15T10:21:57.380Z,66.06
2017-12-15T10:23:03.147Z,66.06
2017-12-15T10:24:08.865Z,66.12
2017-12-15T10:25:14.655Z,66.00
2017-12-15T10:26:20.412Z,65.56
2017-12-15T10:27:26.915Z,64.67
2017-12-15T10:28:32.688Z,64.28
2017-12-15T10:29:38.433Z,63.90
2017-12-15T10:30:44.264Z,63.84
2017-12-15T10:31:50.015Z,63.45
2017-12-15T10:32:55.799Z,63.04
2017-12-15T10:34:01.609Z,62.63
2017-12-15T10:35:07.366Z,62.63
2017-12-15T10:36:13.698Z,62.23
2017-12-15T10:37:19.483Z,62.11
2017-12-15T10:38:25.224Z,61.68
2017-12-15T10:39:31.758Z,61.82
2017-12-15T10:40:38.250Z,62.23
2017-12-15T10:41:43.800Z,62.52
2017-12-15T10:42:49.546Z,62.75
2017-12-15T10:43:55.271Z,62.93
2017-12-15T10:45:01.038Z,63.15
2017-12-15T10:46:06.845Z,63.47
2017-12-15T10:47:13.336Z,63.48
2017-12-15T10:48:19.057Z,63.59
2017-12-15T10:49:24.803Z,64.03
2017-12-15T10:50:30.549Z,64.33
2017-12-15T10:51:36.265Z,64.78
2017-12-15T10:52:42.770Z,65.07
2017-12-15T10:53:48.315Z,65.39
2017-12-15T10:54:54.063Z,65.67
2017-12-15T10:55:59.817Z,65.96
2017-12-15T10:57:05.545Z,66.38
2017-12-15T10:58:12.485Z,66.49
2017-12-15T10:59:18.210Z,66.83
2017-12-15T11:00:23.949Z,66.98
2017-12-15T11:01:29.693Z,67.21
2017-12-15T11:02:35.428Z,67.40
2017-12-15T11:03:41.164Z,67.76
2017-12-15T11:04:46.900Z,67.75
2017-12-15T11:05:53.411Z,67.05
2017-12-15T11:06:59.205Z,67.18
2017-12-15T11:08:04.928Z,67.31
2017-12-15T11:09:11.448Z,67.33
2017-12-15T11:10:17.487Z,67.34
2017-12-15T11:11:23.187Z,67.38
2017-12-15T11:12:29.727Z,67.50
2017-12-15T11:13:35.465Z,67.52
2017-12-15T11:14:41.970Z,67.52
2017-12-15T11:15:47.700Z,67.50
2017-12-15T11:16:53.412Z,67.62
2017-12-15T11:17:59.916Z,67.77
2017-12-15T11:19:05.644Z,68.06
2017-12-15T11:20:11.388Z,68.31
2017-12-15T11:21:17.130Z,68.39
2017-12-15T11:22:22.870Z,68.41
2017-12-15T11:23:28.627Z,68.51
2017-12-15T11:24:34.356Z,68.57
2017-12-15T11:25:40.108Z,68.67
2017-12-15T11:26:45.844Z,68.64
2017-12-15T11:27:51.572Z,68.64
2017-12-15T11:28:57.333Z,68.53
2017-12-15T11:30:03.050Z,68.55
2017-12-15T11:31:08.882Z,68.46
2017-12-15T11:32:15.442Z,68.34
2017-12-15T11:33:21.172Z,68.21
2017-12-15T11:34:27.768Z,68.06
2017-12-15T11:35:33.493Z,68.01
2017-12-15T11:36:39.270Z,68.01
2017-12-15T11:37:44.650Z,68.04
2017-12-15T11:38:51.535Z,67.89
2017-12-15T11:39:57.277Z,67.85
2017-12-15T11:41:03.015Z,67.88
2017-12-15T11:42:08.747Z,67.79
2017-12-15T11:43:15.244Z,67.77
2017-12-15T11:44:20.972Z,67.71
2017-12-15T11:45:26.740Z,67.55
2017-12-15T11:46:32.456Z,67.29
2017-12-15T11:47:38.187Z,67.35
2017-12-15T11:48:43.913Z,67.27
2017-12-15T11:49:50.416Z,67.25
2017-12-15T11:50:55.838Z,67.29
2017-12-15T11:52:01.715Z,67.39
2017-12-15T11:53:07.468Z,67.36
2017-12-15T11:54:13.202Z,67.45
2017-12-15T11:55:18.949Z,67.52
2017-12-15T11:56:24.387Z,67.49
2017-12-15T11:57:30.169Z,67.37
2017-12-15T11:58:36.670Z,67.24
2017-12-15T11:59:42.392Z,67.30
2017-12-15T12:00:48.129Z,67.15
2017-12-15T12:01:53.885Z,66.94
2017-12-15T12:02:59.598Z,66.72
2017-12-15T12:04:05.316Z,66.64
2017-12-15T12:05:10.880Z,66.43
2017-12-15T12:06:17.383Z,66.34
2017-12-15T12:07:23.148Z,66.16
2017-12-15T12:08:28.547Z,66.23
2017-12-15T12:09:34.289Z,66.32
2017-12-15T12:10:39.786Z,66.33
2017-12-15T12:11:44.868Z,66.43
2017-12-15T12:12:50.634Z,66.51
2017-12-15T12:13:57.134Z,66.79
2017-12-15T12:15:02.888Z,67.02
2017-12-15T12:16:08.621Z,67.38
2017-12-15T12:17:14.337Z,67.46
2017-12-15T12:18:20.856Z,67.61
2017-12-15T12:19:26.583Z,67.76
2017-12-15T12:20:31.985Z,67.89
2017-12-15T12:21:37.756Z,67.83
2017-12-15T12:22:43.461Z,67.79
2017-12-15T12:23:49.210Z,67.76
2017-12-15T12:24:54.925Z,67.68
2017-12-15T12:26:01.417Z,67.72
2017-12-15T12:27:07.158Z,67.59
2017-12-15T12:28:12.238Z,67.41
2017-12-15T12:29:17.983Z,67.21
2017-12-15T12:30:24.486Z,67.09
2017-12-15T12:31:30.187Z,67.18
2017-12-15T12:32:35.588Z,67.18
2017-12-15T12:33:41.313Z,67.21
2017-12-15T12:34:47.116Z,67.08
2017-12-15T12:35:53.598Z,67.11
2017-12-15T12:36:59.318Z,66.96
2017-12-15T12:38:05.154Z,66.98
2017-12-15T12:39:11.645Z,66.87
2017-12-15T12:40:17.409Z,66.76
2017-12-15T12:41:23.145Z,66.75
2017-12-15T12:42:28.936Z,66.71
2017-12-15T12:43:34.903Z,66.54
2017-12-15T12:44:40.631Z,66.44
2017-12-15T12:45:46.466Z,66.53
2017-12-15T12:46:52.219Z,66.72
2017-12-15T12:47:58.024Z,66.80
2017-12-15T12:49:03.748Z,66.88
2017-12-15T12:50:09.478Z,66.93
2017-12-15T12:51:15.247Z,67.19
2017-12-15T12:52:20.971Z,67.38
2017-12-15T12:53:26.676Z,67.49
2017-12-15T12:54:32.385Z,67.75
2017-12-15T12:55:38.889Z,67.78
2017-12-15T12:56:44.631Z,67.88
2017-12-15T12:57:50.346Z,68.00
2017-12-15T12:58:56.083Z,68.18
2017-12-15T13:00:02.580Z,68.29
2017-12-15T13:01:08.328Z,68.26
2017-12-15T13:02:14.075Z,67.82
2017-12-15T13:03:19.786Z,67.92
2017-12-15T13:04:25.514Z,68.09
2017-12-15T13:05:30.889Z,68.05
2017-12-15T13:06:36.304Z,68.03
2017-12-15T13:07:41.616Z,68.01
2017-12-15T13:08:47.341Z,68.05
2017-12-15T13:09:53.077Z,68.23
2017-12-15T13:10:59.804Z,68.20
2017-12-15T13:12:07.293Z,68.26
2017-12-15T13:13:13.394Z,68.24
2017-12-15T13:14:20.191Z,68.39
2017-12-15T13:15:25.718Z,68.39
2017-12-15T13:16:32.647Z,68.30
2017-12-15T13:17:40.844Z,68.33
2017-12-15T13:18:46.702Z,68.30
2017-12-15T13:19:52.548Z,68.32
2017-12-15T13:20:59.141Z,68.42
2017-12-15T13:22:05.139Z,68.42
2017-12-15T13:23:12.441Z,68.34
2017-12-15T13:24:18.670Z,68.34
2017-12-15T13:25:24.604Z,68.33
2017-12-15T13:26:30.770Z,68.28
2017-12-15T13:27:36.540Z,68.34
2017-12-15T13:28:44.712Z,68.35
2017-12-15T13:29:50.835Z,68.34
2017-12-15T13:30:57.679Z,68.44
2017-12-15T13:32:03.726Z,68.38
2017-12-15T13:33:09.873Z,68.38
2017-12-15T13:34:16.279Z,68.45
2017-12-15T13:35:22.435Z,68.57
2017-12-15T13:36:28.482Z,68.63
2017-12-15T13:37:34.732Z,68.74
2017-12-15T13:38:40.883Z,68.75
2017-12-15T13:39:47.352Z,68.71
2017-12-15T13:40:54.215Z,68.80
2017-12-15T13:42:00.274Z,69.05
2017-12-15T13:43:06.281Z,69.19
2017-12-15T13:44:13.178Z,69.36
2017-12-15T13:45:19.305Z,69.42
2017-12-15T13:46:26.704Z,69.41
2017-12-15T13:47:32.754Z,69.43
2017-12-15T13:48:39.491Z,69.48
2017-12-15T13:49:45.670Z,69.50
2017-12-15T13:50:53.231Z,69.53
2017-12-15T13:52:00.134Z,69.56
2017-12-15T13:53:06.379Z,69.56
2017-12-15T13:54:13.238Z,69.67
2017-12-15T13:55:19.288Z,69.63
2017-12-15T13:56:25.149Z,69.80
2017-12-15T13:57:31.487Z,69.88
2017-12-15T13:58:37.541Z,70.02
2017-12-15T13:59:43.817Z,70.24
2017-12-15T14:00:50.521Z,70.33
2017-12-15T14:01:57.748Z,70.53
2017-12-15T14:03:05.740Z,70.69
2017-12-15T14:04:12.432Z,70.93
2017-12-15T14:05:19.207Z,71.06
2017-12-15T14:06:25.513Z,71.08
2017-12-15T14:07:32.375Z,71.20
2017-12-15T14:08:38.592Z,71.36